Time;durP1;ratioP1;P1;durP2;ratioP2;P2;SDS_P1;SDS_P2;PMS_P1;PMS_P2;Temp;Humidity;BMP_temperature;BMP_pressure;BME280_temperature;BME280_humidity;BME280_pressure;Samples;Min_cycle;Max_cycle;Signal;HPM_P1;HPM_P2
2020/12/24 00:02:24;;;;;;;1.20;0.10;;;;;;;7.98;100.00;99788.28;5039429;28;20457;-80
2020/12/24 00:04:50;;;;;;;1.27;0.10;;;;;;;7.97;100.00;99791.34;5032305;28;20199;-80
2020/12/24 00:07:15;;;;;;;1.10;0.10;;;;;;;7.99;100.00;99786.38;5036490;28;20188;-80
2020/12/24 00:09:41;;;;;;;1.47;0.10;;;;;;;8.01;100.00;99781.44;5031748;28;20646;-80
2020/12/24 00:12:07;;;;;;;1.70;0.10;;;;;;;8.03;100.00;99779.19;5032940;28;20231;-79
2020/12/24 00:14:32;;;;;;;1.50;0.10;;;;;;;8.01;100.00;99773.41;5032302;28;20619;-80
2020/12/24 00:16:58;;;;;;;1.40;0.20;;;;;;;8.00;100.00;99779.88;5031551;28;20560;-80
2020/12/24 00:19:23;;;;;;;1.10;0.10;;;;;;;7.98;100.00;99777.56;5039949;28;20176;-80
2020/12/24 00:21:49;;;;;;;1.10;0.10;;;;;;;8.01;100.00;99774.16;5041057;28;20592;-80
2020/12/24 00:24:15;;;;;;;1.20;0.13;;;;;;;7.98;100.00;99772.19;5033399;28;20318;-79
2020/12/24 00:26:42;;;;;;;1.67;0.20;;;;;;;7.90;100.00;99769.75;5027602;28;20192;-79
2020/12/24 00:29:09;;;;;;;1.60;0.37;;;;;;;7.86;100.00;99777.75;5030675;28;20451;-80
2020/12/24 00:31:36;;;;;;;1.40;0.10;;;;;;;7.84;100.00;99773.91;5034188;28;20450;-80
2020/12/24 00:34:01;;;;;;;1.37;0.20;;;;;;;7.85;100.00;99768.16;5038273;28;20857;-80
2020/12/24 00:36:28;;;;;;;1.50;0.10;;;;;;;7.88;100.00;99772.03;5030901;28;20469;-79
2020/12/24 00:38:53;;;;;;;1.40;0.10;;;;;;;7.85;100.00;99772.75;5024213;28;20199;-80
2020/12/24 00:41:19;;;;;;;1.70;0.20;;;;;;;7.82;100.00;99758.16;5049012;28;20466;-79
2020/12/24 00:43:45;;;;;;;2.30;0.10;;;;;;;7.78;100.00;99761.91;5034413;28;20176;-78
2020/12/24 00:46:10;;;;;;;1.47;0.20;;;;;;;7.80;100.00;99784.53;5041910;28;20212;-78
2020/12/24 00:48:37;;;;;;;1.40;0.20;;;;;;;7.75;100.00;99779.47;5034547;28;20180;-78
2020/12/24 00:51:03;;;;;;;1.30;0.10;;;;;;;7.82;100.00;99782.25;5029712;28;21088;-78
2020/12/24 00:53:28;;;;;;;1.40;0.13;;;;;;;7.80;100.00;99789.13;5034932;28;20690;-78
2020/12/24 00:55:54;;;;;;;1.10;0.10;;;;;;;7.81;100.00;99788.00;5019319;28;20438;-79
2020/12/24 00:58:20;;;;;;;1.20;0.10;;;;;;;7.77;100.00;99787.16;5034423;28;20186;-78
2020/12/24 01:00:46;;;;;;;1.10;0.10;;;;;;;7.65;100.00;99787.31;5035024;28;20474;-79
2020/12/24 01:03:11;;;;;;;1.20;0.20;;;;;;;7.67;100.00;99785.84;5019522;28;20203;-78
2020/12/24 01:05:37;;;;;;;1.33;0.10;;;;;;;7.71;100.00;99775.19;5029916;28;20176;-79
2020/12/24 01:08:02;;;;;;;1.20;0.10;;;;;;;7.68;100.00;99781.25;5028881;28;20193;-79
2020/12/24 01:10:28;;;;;;;1.10;0.10;;;;;;;7.58;100.00;99784.53;5019811;28;20183;-79
2020/12/24 01:12:54;;;;;;;1.10;0.10;;;;;;;7.57;100.00;99783.00;5033644;28;20211;-78
2020/12/24 01:15:19;;;;;;;1.40;0.20;;;;;;;7.55;100.00;99769.94;5036808;28;20172;-79
2020/12/24 01:17:45;;;;;;;1.20;0.10;;;;;;;7.55;100.00;99777.22;5029588;28;20203;-78
2020/12/24 01:20:10;;;;;;;1.20;0.10;;;;;;;7.60;100.00;99784.94;5032296;28;20484;-79
2020/12/24 01:22:39;;;;;;;1.17;0.10;;;;;;;7.58;100.00;99779.16;5028900;28;20196;-79
2020/12/24 01:25:05;;;;;;;1.93;0.20;;;;;;;7.60;100.00;99766.19;5017845;28;20565;-78
2020/12/24 01:27:31;;;;;;;1.20;0.10;;;;;;;7.66;100.00;99762.88;5036850;28;20502;-79
2020/12/24 01:29:56;;;;;;;1.50;0.10;;;;;;;7.67;100.00;99766.31;5033012;28;20469;-79
2020/12/24 01:32:22;;;;;;;1.17;0.13;;;;;;;7.54;100.00;99757.69;5030077;28;20485;-79
2020/12/24 01:34:47;;;;;;;1.10;0.10;;;;;;;7.51;100.00;99747.66;5042335;28;20647;-79
2020/12/24 01:37:13;;;;;;;1.20;0.10;;;;;;;7.52;100.00;99745.75;5029728;28;20184;-79
2020/12/24 01:39:39;;;;;;;1.53;0.20;;;;;;;7.55;100.00;99751.19;5028756;28;20200;-79
2020/12/24 01:42:04;;;;;;;1.30;0.20;;;;;;;7.58;100.00;99752.38;5032460;28;20223;-78
2020/12/24 01:44:30;;;;;;;1.83;0.20;;;;;;;7.53;100.00;99756.13;5030422;28;20205;-79
2020/12/24 01:46:55;;;;;;;1.20;0.10;;;;;;;7.49;100.00;99741.13;5019513;28;20189;-79
2020/12/24 01:49:21;;;;;;;1.40;0.20;;;;;;;7.50;100.00;99745.34;5037416;28;20188;-78
2020/12/24 01:51:52;;;;;;;1.30;0.10;;;;;;;7.49;100.00;99743.81;5033614;28;20204;-79
2020/12/24 01:54:20;;;;;;;1.40;0.20;;;;;;;7.52;100.00;99745.75;5032805;28;20195;-78
2020/12/24 01:56:46;;;;;;;1.10;0.10;;;;;;;7.52;100.00;99748.44;5025614;28;20446;-78
2020/12/24 01:59:15;;;;;;;1.20;0.10;;;;;;;7.52;100.00;99745.75;5034557;28;20507;-78
2020/12/24 02:01:47;;;;;;;1.50;0.20;;;;;;;7.50;100.00;99735.41;5019784;28;20226;-78
2020/12/24 02:04:14;;;;;;;1.30;0.10;;;;;;;7.51;100.00;99752.25;5037761;28;20446;-78
2020/12/24 02:06:44;;;;;;;1.20;0.10;;;;;;;7.49;100.00;99749.91;5033747;28;22460;-79
2020/12/24 02:09:10;;;;;;;1.20;0.10;;;;;;;7.44;100.00;99746.75;5028997;28;20896;-78
2020/12/24 02:11:38;;;;;;;1.40;0.20;;;;;;;7.46;100.00;99749.88;5024754;28;20454;-79
2020/12/24 02:14:04;;;;;;;1.90;0.33;;;;;;;7.43;100.00;99748.69;5030915;28;20471;-79
2020/12/24 02:16:32;;;;;;;1.97;0.10;;;;;;;7.42;100.00;99754.38;5031541;28;20551;-77
2020/12/24 02:18:58;;;;;;;1.20;0.10;;;;;;;7.41;100.00;99748.28;5022479;28;20177;-78
2020/12/24 02:21:23;;;;;;;1.20;0.10;;;;;;;7.34;100.00;99742.75;5028058;28;20539;-79
2020/12/24 02:23:49;;;;;;;1.30;0.10;;;;;;;7.36;100.00;99734.38;5021988;28;20184;-78
2020/12/24 02:26:15;;;;;;;1.30;0.20;;;;;;;7.35;100.00;99741.66;5024822;28;20314;-79
2020/12/24 02:28:40;;;;;;;1.10;0.10;;;;;;;7.34;100.00;99728.63;5028497;28;20248;-78
2020/12/24 02:31:09;;;;;;;1.90;0.10;;;;;;;7.27;100.00;99726.59;5023717;28;20470;-79
2020/12/24 02:33:35;;;;;;;1.10;0.07;;;;;;;7.21;100.00;99731.47;5036594;28;20783;-79
2020/12/24 02:36:00;;;;;;;1.10;0.10;;;;;;;7.14;100.00;99728.63;5023888;28;20430;-79
2020/12/24 02:38:26;;;;;;;1.83;0.10;;;;;;;7.23;100.00;99712.34;5028797;28;20184;-77
2020/12/24 02:40:51;;;;;;;1.10;0.10;;;;;;;7.29;100.00;99703.69;5026730;28;20220;-79
2020/12/24 02:43:17;;;;;;;1.53;0.10;;;;;;;7.32;100.00;99705.63;5029583;28;20192;-79
2020/12/24 02:45:42;;;;;;;1.40;0.10;;;;;;;7.28;100.00;99701.34;5025936;28;20246;-79
2020/12/24 02:48:08;;;;;;;1.30;0.10;;;;;;;7.21;100.00;99712.72;5021436;28;20264;-80
2020/12/24 02:50:34;;;;;;;1.20;0.10;;;;;;;7.16;100.00;99704.22;5023915;28;20634;-79
2020/12/24 02:53:00;;;;;;;1.37;0.20;;;;;;;7.20;100.00;99703.13;5027083;28;20195;-78
2020/12/24 02:55:45;;;;;;;1.30;0.10;;;;;;;7.18;100.00;99694.66;5029418;28;20853;-79
2020/12/24 02:58:11;;;;;;;1.10;0.00;;;;;;;7.18;100.00;99678.59;4951938;28;20209;-79
2020/12/24 03:00:37;;;;;;;1.47;0.27;;;;;;;7.17;100.00;99681.66;4958137;28;20474;-79
2020/12/24 03:03:02;;;;;;;1.20;0.10;;;;;;;7.16;100.00;99667.47;4941642;28;20314;-79
2020/12/24 03:05:28;;;;;;;1.17;0.10;;;;;;;7.17;100.00;99665.59;4953372;28;20231;-79
2020/12/24 03:08:13;;;;;;;1.30;0.10;;;;;;;7.16;100.00;99661.38;4947705;28;20246;-79
2020/12/24 03:10:39;;;;;;;1.10;0.10;;;;;;;7.09;100.00;99651.31;4911535;29;20196;-79
2020/12/24 03:13:04;;;;;;;1.33;0.10;;;;;;;7.06;100.00;99652.03;4911377;29;20441;-78
2020/12/24 03:15:30;;;;;;;1.50;0.10;;;;;;;6.99;100.00;99651.88;4916481;29;20227;-79
2020/12/24 03:17:55;;;;;;;1.10;0.10;;;;;;;7.04;100.00;99653.50;4882381;29;20188;-79
2020/12/24 03:20:21;;;;;;;1.20;0.10;;;;;;;7.01;100.00;99646.94;4917673;29;20627;-79
2020/12/24 03:22:46;;;;;;;1.10;0.10;;;;;;;6.95;100.00;99640.34;4909454;29;20208;-77
2020/12/24 03:25:12;;;;;;;1.50;0.10;;;;;;;6.99;100.00;99640.41;4910056;29;20922;-79
2020/12/24 03:27:37;;;;;;;1.10;0.10;;;;;;;6.99;100.00;99659.91;4905983;29;20196;-79
2020/12/24 03:30:05;;;;;;;1.97;0.20;;;;;;;7.00;100.00;99656.13;4917296;29;20337;-78
2020/12/24 03:32:31;;;;;;;1.37;0.10;;;;;;;7.02;100.00;99667.25;4915671;29;20711;-78
2020/12/24 03:34:56;;;;;;;1.10;0.10;;;;;;;7.04;100.00;99672.25;4938717;28;20461;-78
2020/12/24 03:37:22;;;;;;;1.20;0.10;;;;;;;6.99;100.00;99678.66;4973490;28;20201;-79
2020/12/24 03:39:47;;;;;;;1.13;0.10;;;;;;;7.08;100.00;99681.84;4970735;28;20212;-79
2020/12/24 03:42:13;;;;;;;1.30;0.10;;;;;;;7.06;100.00;99673.44;4972996;28;20613;-79
2020/12/24 03:44:38;;;;;;;1.10;0.10;;;;;;;7.09;100.00;99678.06;4972332;28;20178;-79
2020/12/24 03:47:04;;;;;;;1.20;0.10;;;;;;;7.11;100.00;99691.88;4989322;28;20291;-78
2020/12/24 03:49:30;;;;;;;1.10;0.10;;;;;;;7.15;100.00;99686.59;5031118;28;20196;-80
2020/12/24 03:51:55;;;;;;;1.10;0.10;;;;;;;7.14;100.00;99693.84;5030199;28;20204;-78
2020/12/24 03:54:21;;;;;;;1.40;0.10;;;;;;;7.15;100.00;99692.72;5029927;28;20179;-78
2020/12/24 03:56:46;;;;;;;1.20;0.10;;;;;;;7.18;100.00;99691.25;5024846;28;20187;-79
2020/12/24 03:59:12;;;;;;;1.10;0.00;;;;;;;7.12;100.00;99698.00;5029988;28;20206;-79
2020/12/24 04:01:38;;;;;;;1.13;0.10;;;;;;;7.12;100.00;99687.31;5034966;28;20312;-78
2020/12/24 04:04:03;;;;;;;1.20;0.10;;;;;;;7.14;100.00;99685.03;5028355;28;20187;-79
2020/12/24 04:06:29;;;;;;;1.10;0.00;;;;;;;7.14;100.00;99688.47;5034246;28;20176;-78
2020/12/24 04:08:54;;;;;;;1.20;0.10;;;;;;;7.16;100.00;99677.44;5030857;28;20183;-79
2020/12/24 04:11:20;;;;;;;1.10;0.07;;;;;;;7.13;100.00;99678.13;5023107;28;20197;-79
2020/12/24 04:13:46;;;;;;;1.10;0.00;;;;;;;7.12;100.00;99668.56;5007538;28;20637;-79
2020/12/24 04:16:11;;;;;;;1.20;0.10;;;;;;;7.09;100.00;99672.72;5024076;28;20188;-79
2020/12/24 04:18:37;;;;;;;1.10;0.00;;;;;;;6.99;100.00;99664.47;5020583;28;20502;-78
2020/12/24 04:21:03;;;;;;;1.10;0.00;;;;;;;7.08;100.00;99675.75;5015399;28;20227;-79
2020/12/24 04:23:29;;;;;;;1.30;0.10;;;;;;;7.08;100.00;99665.81;5022373;28;20807;-79
2020/12/24 04:25:55;;;;;;;1.10;0.10;;;;;;;7.04;100.00;99669.56;5023021;28;20462;-79
2020/12/24 04:28:20;;;;;;;1.10;0.00;;;;;;;7.08;100.00;99668.47;5029241;28;20179;-78
2020/12/24 04:30:46;;;;;;;1.10;0.00;;;;;;;7.06;100.00;99672.66;5024736;28;20196;-77
2020/12/24 04:33:12;;;;;;;1.17;0.10;;;;;;;7.06;100.00;99673.44;5024946;28;20169;-78
2020/12/24 04:35:38;;;;;;;1.10;0.10;;;;;;;7.05;100.00;99687.16;5027530;28;20192;-77
2020/12/24 04:38:05;;;;;;;1.10;0.07;;;;;;;6.99;100.00;99684.00;5033075;28;21008;-78
2020/12/24 04:40:32;;;;;;;1.20;0.10;;;;;;;7.03;100.00;99684.84;5028716;28;20291;-78
2020/12/24 04:42:59;;;;;;;1.10;0.00;;;;;;;7.04;100.00;99686.41;5021564;28;20973;-77
2020/12/24 04:45:26;;;;;;;1.20;0.10;;;;;;;7.01;100.00;99697.81;5022320;28;20505;-78
2020/12/24 04:47:57;;;;;;;1.10;0.00;;;;;;;6.99;100.00;99692.03;5019357;28;20445;-78
2020/12/24 04:50:30;;;;;;;1.10;0.00;;;;;;;6.89;100.00;99697.19;5021200;28;20451;-77
2020/12/24 04:52:56;;;;;;;1.10;0.00;;;;;;;6.92;100.00;99699.16;5022102;28;20530;-77
2020/12/24 04:55:22;;;;;;;1.10;0.00;;;;;;;6.77;100.00;99694.66;5027163;28;20433;-77
2020/12/24 04:57:49;;;;;;;1.10;0.00;;;;;;;6.88;100.00;99690.28;5027571;28;20446;-78
2020/12/24 05:00:16;;;;;;;1.23;0.10;;;;;;;6.80;100.00;99694.72;5029872;28;20463;-78
2020/12/24 05:02:41;;;;;;;1.20;0.10;;;;;;;6.81;100.00;99698.19;5020501;28;21068;-79
2020/12/24 05:05:07;;;;;;;1.10;0.00;;;;;;;6.71;100.00;99699.53;5029950;28;20485;-79
2020/12/24 05:07:32;;;;;;;1.40;0.20;;;;;;;6.80;100.00;99705.44;5031971;28;20183;-78
2020/12/24 05:09:58;;;;;;;1.20;0.07;;;;;;;6.77;100.00;99703.47;5023720;28;20244;-76
2020/12/24 05:12:28;;;;;;;1.20;0.10;;;;;;;6.77;100.00;99708.81;5024414;28;20219;-78
2020/12/24 05:14:53;;;;;;;1.20;0.10;;;;;;;6.74;100.00;99706.81;5034995;28;20273;-78
2020/12/24 05:17:21;;;;;;;1.10;0.00;;;;;;;6.81;100.00;99703.53;5026029;28;20510;-79
2020/12/24 05:19:59;;;;;;;1.30;0.13;;;;;;;6.79;100.00;99700.44;5019697;28;21077;-79
2020/12/24 05:22:24;;;;;;;1.10;0.00;;;;;;;6.76;100.00;99706.47;5015950;28;21066;-77
2020/12/24 05:24:50;;;;;;;1.20;0.00;;;;;;;6.72;100.00;99710.97;5018001;28;20451;-78
2020/12/24 05:27:20;;;;;;;1.20;0.10;;;;;;;6.73;100.00;99716.00;5022174;28;20184;-77
2020/12/24 05:29:49;;;;;;;1.10;0.10;;;;;;;6.75;100.00;99716.41;5017927;28;20239;-77
2020/12/24 05:32:28;;;;;;;1.20;0.10;;;;;;;6.71;100.00;99725.50;5019878;28;20542;-79
2020/12/24 05:35:06;;;;;;;1.20;0.10;;;;;;;6.70;100.00;99719.34;5026489;28;20455;-77
2020/12/24 05:37:31;;;;;;;1.30;0.10;;;;;;;6.66;100.00;99728.44;5017764;28;20458;-78
2020/12/24 05:39:57;;;;;;;1.10;0.10;;;;;;;6.63;100.00;99724.56;5014724;28;20466;-79
2020/12/24 05:42:24;;;;;;;1.20;0.00;;;;;;;6.51;100.00;99732.72;5016450;28;20297;-79
2020/12/24 05:44:51;;;;;;;1.20;0.10;;;;;;;6.49;100.00;99734.19;5022389;28;20199;-78
2020/12/24 05:47:27;;;;;;;1.10;0.00;;;;;;;6.49;100.00;99743.00;5024727;28;20544;-78
2020/12/24 05:49:54;;;;;;;1.23;0.07;;;;;;;6.44;100.00;99737.94;5025213;28;20508;-77
2020/12/24 05:52:19;;;;;;;1.20;0.00;;;;;;;6.46;100.00;99737.56;5027546;28;20614;-78
2020/12/24 05:54:46;;;;;;;1.20;0.00;;;;;;;6.41;100.00;99741.28;5028410;28;20591;-77
2020/12/24 05:57:33;;;;;;;1.17;0.00;;;;;;;6.28;100.00;99742.53;5019032;28;20250;-78
2020/12/24 05:59:59;;;;;;;1.20;0.07;;;;;;;6.26;100.00;99742.09;4989421;28;20487;-78
2020/12/24 06:02:29;;;;;;;1.17;0.10;;;;;;;6.13;100.00;99748.69;4990784;28;20475;-79
2020/12/24 06:05:05;;;;;;;1.20;0.00;;;;;;;6.12;100.00;99745.22;4987330;28;20455;-77
2020/12/24 06:07:32;;;;;;;1.10;0.00;;;;;;;6.23;100.00;99750.81;4980561;28;20463;-79
2020/12/24 06:10:08;;;;;;;1.20;0.07;;;;;;;6.20;100.00;99749.63;4982382;28;20444;-78
2020/12/24 06:12:48;;;;;;;1.20;0.10;;;;;;;6.11;100.00;99757.06;4988790;28;20598;-79
2020/12/24 06:15:16;;;;;;;1.33;0.20;;;;;;;6.04;100.00;99764.88;4988554;28;20885;-79
2020/12/24 06:17:44;;;;;;;1.20;0.00;;;;;;;5.96;100.00;99765.06;4994073;28;20448;-79
2020/12/24 06:20:17;;;;;;;1.20;0.10;;;;;;;5.92;100.00;99772.22;4976448;28;20470;-78
2020/12/24 06:22:42;;;;;;;1.20;0.00;;;;;;;5.88;100.00;99774.03;4969655;28;20563;-78
2020/12/24 06:25:11;;;;;;;1.20;0.10;;;;;;;5.87;100.00;99780.47;4990162;28;20548;-79
2020/12/24 06:27:51;;;;;;;1.20;0.10;;;;;;;5.76;100.00;99774.88;4997970;28;20190;-78
2020/12/24 06:30:22;;;;;;;1.20;0.10;;;;;;;5.73;100.00;99782.78;4997342;28;20448;-77
2020/12/24 06:32:54;;;;;;;1.20;0.10;;;;;;;5.60;100.00;99787.41;4981754;28;20476;-77
2020/12/24 06:35:32;;;;;;;1.20;0.00;;;;;;;5.53;100.00;99789.13;4998236;28;20496;-77
2020/12/24 06:37:57;;;;;;;1.20;0.07;;;;;;;5.52;100.00;99792.94;5034332;28;20509;-77
2020/12/24 06:40:39;;;;;;;1.20;0.10;;;;;;;5.55;100.00;99798.34;5021336;28;20475;-78
2020/12/24 06:43:06;;;;;;;1.20;0.07;;;;;;;5.49;100.00;99795.16;5030956;28;20192;-78
2020/12/24 06:45:39;;;;;;;1.30;0.10;;;;;;;5.53;100.00;99806.69;5025268;28;20494;-76
2020/12/24 06:48:15;;;;;;;1.20;0.00;;;;;;;5.57;100.00;99806.81;5047175;28;20457;-76
2020/12/24 06:50:43;;;;;;;1.20;0.07;;;;;;;5.58;100.00;99815.56;5029390;28;20803;-79
2020/12/24 06:53:28;;;;;;;1.20;0.10;;;;;;;5.53;100.00;99821.16;5045057;28;20433;-78
2020/12/24 06:56:24;;;;;;;1.20;0.00;;;;;;;5.45;100.00;99833.56;5041683;28;20449;-77
2020/12/24 06:58:54;;;;;;;1.20;0.00;;;;;;;5.45;100.00;99837.00;5030040;28;20444;-77
2020/12/24 07:01:23;;;;;;;1.20;0.00;;;;;;;5.29;100.00;99836.16;5030340;28;20470;-78
2020/12/24 07:03:50;;;;;;;1.20;0.00;;;;;;;5.26;100.00;99844.88;5039554;28;20810;-77
2020/12/24 07:06:45;;;;;;;1.20;0.00;;;;;;;5.30;100.00;99843.03;5035478;28;20430;-77
2020/12/24 07:09:20;;;;;;;1.20;0.00;;;;;;;5.29;100.00;99851.41;5044946;28;20464;-77
2020/12/24 07:11:48;;;;;;;1.20;0.10;;;;;;;5.08;100.00;99858.81;5022434;28;21023;-77
2020/12/24 07:14:31;;;;;;;1.20;0.00;;;;;;;5.18;100.00;99853.78;5035873;28;20792;-77
2020/12/24 07:17:05;;;;;;;1.20;0.10;;;;;;;5.24;100.00;99865.00;5035533;28;20521;-77
2020/12/24 07:19:32;;;;;;;1.20;0.00;;;;;;;5.26;100.00;99860.88;5029667;28;20874;-78
2020/12/24 07:22:00;;;;;;;1.20;0.10;;;;;;;5.27;100.00;99865.09;5021131;28;20473;-78
2020/12/24 07:24:27;;;;;;;1.20;0.10;;;;;;;5.26;100.00;99876.91;5019585;28;20462;-77
2020/12/24 07:26:58;;;;;;;1.20;0.00;;;;;;;5.32;100.00;99874.75;5028670;28;20477;-79
2020/12/24 07:29:25;;;;;;;1.20;0.00;;;;;;;5.40;100.00;99876.50;5031575;28;20454;-78
2020/12/24 07:31:52;;;;;;;1.20;0.00;;;;;;;5.33;100.00;99877.09;5027129;28;20470;-77
2020/12/24 07:34:36;;;;;;;1.17;0.00;;;;;;;5.32;100.00;99886.19;5037512;28;20879;-77
2020/12/24 07:37:03;;;;;;;1.53;0.10;;;;;;;5.32;100.00;99893.44;5018860;28;20443;-78
2020/12/24 07:39:29;;;;;;;1.20;0.00;;;;;;;5.35;100.00;99901.53;5030838;28;20447;-78
2020/12/24 07:41:54;;;;;;;1.20;0.10;;;;;;;5.38;100.00;99894.75;5045276;28;20477;-77
2020/12/24 07:44:20;;;;;;;1.20;0.10;;;;;;;5.41;100.00;99905.53;5015195;28;20257;-78
2020/12/24 07:46:48;;;;;;;1.30;0.20;;;;;;;5.51;100.00;99904.28;5039624;28;20184;-79
2020/12/24 07:49:14;;;;;;;1.20;0.10;;;;;;;5.56;100.00;99919.25;5047044;28;20482;-77
2020/12/24 07:51:40;;;;;;;1.17;0.10;;;;;;;5.55;100.00;99923.06;5045446;28;20442;-78
2020/12/24 07:54:17;;;;;;;1.17;0.10;;;;;;;5.60;100.00;99922.81;5046986;28;20530;-78
2020/12/24 07:56:44;;;;;;;1.67;0.13;;;;;;;5.61;100.00;99935.84;5042183;28;20449;-78
2020/12/24 07:59:11;;;;;;;1.20;0.00;;;;;;;5.63;100.00;99927.50;5032624;28;21372;-78
2020/12/24 08:01:36;;;;;;;1.20;0.10;;;;;;;5.60;100.00;99930.81;5021158;28;20561;-79
2020/12/24 08:04:04;;;;;;;1.17;0.07;;;;;;;5.57;100.00;99940.31;5034022;28;20470;-78
2020/12/24 08:06:33;;;;;;;1.30;0.10;;;;;;;5.60;100.00;99939.63;5031935;28;20187;-78
2020/12/24 08:09:18;;;;;;;1.40;0.10;;;;;;;5.54;100.00;99954.31;5034803;28;20522;-78
2020/12/24 08:12:00;;;;;;;1.30;0.20;;;;;;;5.62;100.00;99950.75;5024404;28;20467;-79
2020/12/24 08:14:29;;;;;;;1.20;0.00;;;;;;;5.61;100.00;99956.44;5034339;28;20784;-78
2020/12/24 08:17:37;;;;;;;1.13;0.10;;;;;;;5.62;100.00;99968.66;5036958;28;20438;-78
2020/12/24 08:20:08;;;;;;;1.20;0.10;;;;;;;5.62;100.00;99950.75;5013796;28;21018;-77
2020/12/24 08:22:45;;;;;;;1.20;0.10;;;;;;;5.68;100.00;99964.63;5023276;28;20990;-77
2020/12/24 08:25:14;;;;;;;1.17;0.07;;;;;;;5.67;100.00;99963.84;5026557;28;20512;-79
2020/12/24 08:27:40;;;;;;;1.20;0.00;;;;;;;5.71;100.00;99971.97;5022303;28;20570;-77
2020/12/24 08:30:06;;;;;;;1.37;0.13;;;;;;;5.76;100.00;99980.53;5021399;28;21100;-76
2020/12/24 08:32:32;;;;;;;1.10;0.00;;;;;;;5.72;100.00;99970.84;5016756;28;20205;-79
2020/12/24 08:35:12;;;;;;;1.17;0.00;;;;;;;5.84;100.00;99978.84;5016573;28;20467;-78
2020/12/24 08:37:38;;;;;;;1.63;0.17;;;;;;;5.84;100.00;99987.66;5039988;28;20446;-79
2020/12/24 08:40:23;;;;;;;1.20;0.10;;;;;;;5.89;100.00;99989.28;5016663;28;20468;-78
2020/12/24 08:42:52;;;;;;;1.20;0.10;;;;;;;5.89;100.00;99999.97;5023111;28;20199;-79
2020/12/24 08:45:17;;;;;;;1.40;0.10;;;;;;;5.92;100.00;99997.41;5004921;28;20455;-76
2020/12/24 08:47:43;;;;;;;1.17;0.10;;;;;;;5.94;100.00;99997.09;5032639;28;20819;-79
2020/12/24 08:50:08;;;;;;;1.20;0.10;;;;;;;5.88;100.00;100011.78;5032397;28;20176;-77
2020/12/24 08:52:37;;;;;;;1.20;0.10;;;;;;;5.99;100.00;100004.84;5032277;28;20208;-79
2020/12/24 08:55:08;;;;;;;1.17;0.00;;;;;;;6.00;100.00;100009.84;5026126;28;20454;-78
2020/12/24 08:57:35;;;;;;;1.30;0.10;;;;;;;6.08;100.00;100013.47;5027394;28;20889;-77
2020/12/24 09:00:04;;;;;;;1.20;0.10;;;;;;;6.12;100.00;100025.06;5015890;28;20774;-78
2020/12/24 09:02:32;;;;;;;1.23;0.07;;;;;;;6.16;100.00;100029.38;5028883;28;20460;-78
2020/12/24 09:04:59;;;;;;;1.20;0.10;;;;;;;6.22;100.00;100024.56;5030765;28;20924;-77
2020/12/24 09:07:30;;;;;;;1.10;0.10;;;;;;;6.23;100.00;100034.16;5033555;28;20840;-78
2020/12/24 09:10:07;;;;;;;1.13;0.00;;;;;;;6.19;100.00;100042.06;5037558;28;20434;-79
2020/12/24 09:12:33;;;;;;;1.30;0.10;;;;;;;6.20;100.00;100048.19;5038111;28;20937;-77
2020/12/24 09:15:10;;;;;;;1.47;0.17;;;;;;;6.22;100.00;100057.44;5035741;28;20419;-79
2020/12/24 09:17:36;;;;;;;1.70;0.10;;;;;;;6.24;100.00;100065.09;5047743;28;20437;-79
2020/12/24 09:20:11;;;;;;;1.20;0.00;;;;;;;6.30;100.00;100069.09;5036651;28;20438;-78
2020/12/24 09:22:48;;;;;;;1.17;0.10;;;;;;;6.30;100.00;100071.78;5016344;28;20475;-78
2020/12/24 09:25:41;;;;;;;1.37;0.10;;;;;;;6.36;100.00;100076.53;5037967;28;20461;-78
2020/12/24 09:28:21;;;;;;;1.20;0.10;;;;;;;6.37;100.00;100079.97;5036641;28;20464;-79
2020/12/24 09:30:48;;;;;;;1.27;0.20;;;;;;;6.48;100.00;100082.97;5033774;28;20465;-78
2020/12/24 09:33:14;;;;;;;1.13;0.07;;;;;;;6.49;100.00;100081.81;5030713;28;20437;-78
2020/12/24 09:35:40;;;;;;;1.20;0.07;;;;;;;6.48;100.00;100089.09;5028027;28;20965;-78
2020/12/24 09:38:05;;;;;;;2.23;0.10;;;;;;;6.53;100.00;100088.03;5036570;28;20602;-80
2020/12/24 09:40:31;;;;;;;1.20;0.10;;;;;;;6.58;100.00;100080.56;5034886;28;20206;-78
2020/12/24 09:42:56;;;;;;;1.20;0.10;;;;;;;6.61;100.00;100077.22;5031667;28;20184;-78
2020/12/24 09:45:23;;;;;;;1.30;0.10;;;;;;;6.62;100.00;100083.34;5034745;28;20176;-78
2020/12/24 09:47:50;;;;;;;1.40;0.20;;;;;;;6.63;100.00;100090.22;5039599;28;20595;-78
2020/12/24 09:50:15;;;;;;;1.27;0.07;;;;;;;6.56;100.00;100096.19;5031112;28;20517;-77
2020/12/24 09:52:41;;;;;;;1.10;0.10;;;;;;;6.61;100.00;100095.16;5029912;28;20924;-78
2020/12/24 09:55:07;;;;;;;2.13;0.20;;;;;;;6.61;100.00;100101.28;5035376;28;20187;-78
2020/12/24 09:57:33;;;;;;;1.30;0.20;;;;;;;6.61;100.00;100103.97;5035895;28;20184;-77
2020/12/24 09:59:59;;;;;;;1.40;0.20;;;;;;;6.66;100.00;100105.63;5036724;28;20179;-78
2020/12/24 10:02:26;;;;;;;1.27;0.07;;;;;;;6.71;100.00;100106.13;5032183;28;20507;-78
2020/12/24 10:04:53;;;;;;;1.40;0.20;;;;;;;6.74;100.00;100105.44;5034933;28;20465;-78
2020/12/24 10:07:22;;;;;;;2.03;0.43;;;;;;;6.76;100.00;100100.53;5035448;28;20438;-78
2020/12/24 10:09:51;;;;;;;1.30;0.10;;;;;;;6.74;100.00;100102.78;5035122;28;20431;-78
2020/12/24 10:12:21;;;;;;;1.30;0.20;;;;;;;6.76;100.00;100110.44;5026087;28;20983;-77
2020/12/24 10:14:47;;;;;;;1.10;0.10;;;;;;;6.82;100.00;100111.75;5031350;28;20473;-78
2020/12/24 10:17:13;;;;;;;1.30;0.10;;;;;;;6.87;100.00;100114.19;5038662;28;20847;-78
2020/12/24 10:19:39;;;;;;;1.20;0.10;;;;;;;6.88;100.00;100127.22;5034411;28;20252;-77
2020/12/24 10:22:04;;;;;;;1.73;0.20;;;;;;;6.88;100.00;100129.13;5026727;28;20525;-78
2020/12/24 10:24:30;;;;;;;1.10;0.10;;;;;;;6.92;100.00;100127.31;5026057;28;20183;-76
2020/12/24 10:26:55;;;;;;;1.10;0.10;;;;;;;6.97;100.00;100117.13;5029818;28;20939;-77
2020/12/24 10:29:21;;;;;;;1.20;0.10;;;;;;;7.05;100.00;100118.88;5038153;28;20708;-78
2020/12/24 10:31:47;;;;;;;1.20;0.10;;;;;;;7.11;100.00;100125.53;5033016;28;20206;-77
2020/12/24 10:34:13;;;;;;;1.33;0.13;;;;;;;7.11;100.00;100122.06;5023792;28;20525;-77
2020/12/24 10:36:39;;;;;;;1.20;0.10;;;;;;;7.07;100.00;100121.19;5032285;28;20474;-76
2020/12/24 10:39:07;;;;;;;2.10;0.30;;;;;;;7.09;100.00;100127.00;5037942;28;20186;-78
2020/12/24 10:41:34;;;;;;;1.10;0.10;;;;;;;7.09;100.00;100122.44;5034953;28;20270;-77
2020/12/24 10:44:00;;;;;;;1.30;0.17;;;;;;;6.90;100.00;100124.22;5022381;28;20496;-78
2020/12/24 10:46:26;;;;;;;1.20;0.10;;;;;;;7.05;100.00;100124.22;5036046;28;20943;-77
2020/12/24 10:48:51;;;;;;;1.23;0.13;;;;;;;7.14;100.00;100135.53;5031540;28;20438;-77
2020/12/24 10:51:17;;;;;;;1.20;0.10;;;;;;;7.19;100.00;100137.19;5035917;28;20207;-78
2020/12/24 10:53:43;;;;;;;1.40;0.20;;;;;;;7.23;100.00;100128.13;5037432;28;20211;-78
2020/12/24 10:56:12;;;;;;;1.40;0.20;;;;;;;7.26;100.00;100127.44;5028116;28;20187;-78
2020/12/24 10:58:44;;;;;;;1.97;0.20;;;;;;;7.26;100.00;100137.38;5030108;28;20480;-77
2020/12/24 11:01:10;;;;;;;2.93;0.33;;;;;;;7.24;100.00;100140.41;5042414;28;20474;-77
2020/12/24 11:03:37;;;;;;;1.50;0.30;;;;;;;7.15;100.00;100137.13;5036610;28;20431;-78
2020/12/24 11:06:06;;;;;;;1.23;0.10;;;;;;;7.18;100.00;100146.38;5031418;28;20451;-78
2020/12/24 11:08:33;;;;;;;2.30;0.50;;;;;;;7.19;100.00;100148.69;5023718;28;20466;-77
2020/12/24 11:11:00;;;;;;;1.60;0.20;;;;;;;7.22;100.00;100158.69;5039126;28;20466;-78
2020/12/24 11:13:26;;;;;;;1.40;0.10;;;;;;;7.23;100.00;100162.16;5036293;28;20437;-78
2020/12/24 11:15:52;;;;;;;1.40;0.30;;;;;;;7.26;100.00;100150.75;5042468;28;20529;-78
2020/12/24 11:18:17;;;;;;;1.50;0.20;;;;;;;7.28;100.00;100146.63;5037869;28;20242;-78
2020/12/24 11:20:43;;;;;;;1.80;0.30;;;;;;;7.33;100.00;100150.94;5042197;28;20466;-79
2020/12/24 11:23:08;;;;;;;1.10;0.10;;;;;;;7.28;100.00;100143.16;5039304;28;20176;-79
2020/12/24 11:25:34;;;;;;;1.57;0.30;;;;;;;7.27;100.00;100158.47;5038837;28;20176;-79
2020/12/24 11:28:01;;;;;;;2.00;0.30;;;;;;;7.28;100.00;100153.88;5045816;28;20187;-78
2020/12/24 11:30:27;;;;;;;2.00;0.37;;;;;;;7.29;100.00;100152.75;5034851;28;20450;-78
2020/12/24 11:32:53;;;;;;;2.30;0.37;;;;;;;7.20;100.00;100154.84;5041668;28;20517;-78
2020/12/24 11:35:19;;;;;;;2.07;0.40;;;;;;;7.21;100.00;100157.16;5041712;28;20558;-78
2020/12/24 11:37:44;;;;;;;2.13;0.50;;;;;;;7.23;100.00;100149.56;5037854;28;20177;-78